Ferry Katsuragi — JI3611 — position and weather

sailwx.info

Track history (hours):
 
Tides and Currents Weather Stations Pressure Air Temp Water Temp Dewpoint Dewpoint Depression Visibility Wind Speed Wind Dir Waves Ship Positions

Ferry Katsuragi

Last reported at 2017-Apr-30 05:01 UTC. Time now 2017-Apr-30 05:20 UTC.
Position N 34°11' E 135°03'.

Length 108 m; draft 4 m.

Type: Passenger vessel. MMSI: 431301245.

Date/timePositionNaut miles runAvg speedWind from/ knotsBaromVisibWave heightAir tempDewpointWater temp
2017-Apr-30 05:01N 34°11' E 135°03'5 9.1
2017-Apr-30 04:30N 34°13' E 135°09'0 0.0
2017-Apr-30 04:00N 34°13' E 135°09'713.4
2017-Apr-30 03:30N 34°11' E 135°01'4 1.2
2017-Apr-30 00:15N 34°10' E 134°56'515.9
2017-Apr-29 23:58N 34°12' E 135°01'714.3
2017-Apr-29 23:31N 34°13' E 135°09'0 0.0
2017-Apr-29 23:00N 34°13' E 135°09'3 6.0
2017-Apr-29 22:30N 34°13' E 135°05'9 2.3
2017-Apr-29 18:33N 34°09' E 134°55'114.1
2017-Apr-29 18:30N 34°09' E 134°56'713.9
2017-Apr-29 18:00N 34°12' E 135°03'4 8.8
2017-Apr-29 17:31N 34°13' E 135°09'0 0.0
2017-Apr-29 17:00N 34°13' E 135°09'0 0.0
2017-Apr-29 16:30N 34°13' E 135°09'0 0.0
2017-Apr-29 16:00N 34°13' E 135°09'0 0.0
2017-Apr-29 15:30N 34°13' E 135°09'0 0.2
2017-Apr-29 15:01N 34°13' E 135°08'713.5
2017-Apr-29 14:30N 34°12' E 135°00'3 0.8
2017-Apr-29 10:55N 34°10' E 134°58'615.1
2017-Apr-29 10:30N 34°12' E 135°05'3 6.7
2017-Apr-29 10:01N 34°13' E 135°09'0 0.0
2017-Apr-29 09:30N 34°13' E 135°09'715.0
2017-Apr-29 09:01N 34°11' E 134°60'10 3.1
2017-Apr-29 05:52N 34°07' E 134°49'715.3
2017-Apr-29 05:23N 34°10' E 134°57'514.6
2017-Apr-29 05:00N 34°12' E 135°03'5 9.1
2017-Apr-29 04:30N 34°13' E 135°09'0 0.0
2017-Apr-29 04:00N 34°13' E 135°09'612.0
2017-Apr-29 03:30N 34°11' E 135°02'5 1.4
2017-Apr-29 00:12N 34°10' E 134°56'317.5
2017-Apr-29 00:00N 34°11' E 134°60'815.0
2017-Apr-28 23:30N 34°13' E 135°09'0 0.0
2017-Apr-28 23:01N 34°13' E 135°09'3 5.5
2017-Apr-28 22:31N 34°12' E 135°05'815.1
2017-Apr-28 22:00N 34°09' E 134°57'12 4.4
2017-Apr-28 19:17N 34°05' E 134°43'613.9
2017-Apr-28 18:52N 34°08' E 134°50'514.2
2017-Apr-28 18:30N 34°09' E 134°56'714.4
2017-Apr-28 18:00N 34°12' E 135°03'4 8.7
2017-Apr-28 17:30N 34°13' E 135°09'0 0.0
2017-Apr-28 17:00N 34°13' E 135°09'0 0.0
2017-Apr-28 16:30N 34°13' E 135°09'0 0.0
2017-Apr-28 16:00N 34°13' E 135°09'0 0.0
2017-Apr-28 15:30N 34°13' E 135°09'0 0.7
2017-Apr-28 15:01N 34°13' E 135°08'713.7
2017-Apr-28 14:30N 34°10' E 135°00'3 0.9
2017-Apr-28 11:01N 34°10' E 134°56'115.0
2017-Apr-28 10:58N 34°10' E 134°57'715.0
2017-Apr-28 10:30N 34°12' E 135°05'3 5.9
2017-Apr-28 10:00N 34°13' E 135°09'0 0.5
2017-Apr-28 09:30N 34°13' E 135°08'815.5
2017-Apr-28 09:00N 34°11' E 134°59'1 0.4
2017-Apr-28 05:11N 34°11' E 135°01'314.4
2017-Apr-28 05:00N 34°12' E 135°04'4 8.2
2017-Apr-28 04:30N 34°13' E 135°09'0 0.0
2017-Apr-28 04:01N 34°13' E 135°09'714.2
2017-Apr-28 03:30N 34°10' E 135°00'10 3.4
2017-Apr-28 00:36N 34°07' E 134°49'316.2
2017-Apr-28 00:26N 34°08' E 134°52'716.2
2017-Apr-28 00:00N 34°11' E 135°00'714.9
2017-Apr-27 23:30N 34°13' E 135°09'0 0.1
2017-Apr-27 23:01N 34°13' E 135°09'3 5.5
2017-Apr-27 22:30N 34°13' E 135°05'814.4
2017-Apr-27 21:59N 34°10' E 134°57'7 2.3
2017-Apr-27 18:55N 34°07' E 134°49'614.1
2017-Apr-27 18:28N 34°09' E 134°56'714.3
2017-Apr-27 18:00N 34°12' E 135°03'5 9.2
2017-Apr-27 17:30N 34°13' E 135°09'0 0.0
2017-Apr-27 17:00N 34°13' E 135°09'0 0.0
2017-Apr-27 16:31N 34°13' E 135°09'0 0.0
2017-Apr-27 16:01N 34°13' E 135°09'0 0.0
2017-Apr-27 15:30N 34°13' E 135°09'1 1.3
2017-Apr-27 15:01N 34°13' E 135°08'713.2
2017-Apr-27 14:30N 34°11' E 135°00'4 1.0
2017-Apr-27 11:00N 34°10' E 134°56'714.9
2017-Apr-27 10:30N 34°12' E 135°04'4 7.1
2017-Apr-27 10:00N 34°13' E 135°09'0 0.1
2017-Apr-27 09:30N 34°13' E 135°09'714.1
2017-Apr-27 09:00N 34°11' E 135°00'5 1.5
2017-Apr-27 05:33N 34°08' E 134°55'114.4
2017-Apr-27 05:28N 34°09' E 134°56'714.2
2017-Apr-27 05:00N 34°11' E 135°04'4 8.8
2017-Apr-27 04:30N 34°13' E 135°09'0 0.1
2017-Apr-27 04:00N 34°13' E 135°09'714.0
2017-Apr-27 03:30N 34°11' E 135°00'2 0.7
2017-Apr-27 00:10N 34°10' E 134°58'215.7
2017-Apr-27 00:01N 34°11' E 135°01'713.6
2017-Apr-26 23:30N 34°13' E 135°09'0 0.0
2017-Apr-26 23:00N 34°13' E 135°09'3 5.3
2017-Apr-26 22:31N 34°13' E 135°05'815.6
2017-Apr-26 21:59N 34°09' E 134°57'1 0.2
2017-Apr-26 18:28N 34°09' E 134°57'613.8
2017-Apr-26 18:01N 34°12' E 135°04'4 8.3
2017-Apr-26 17:30N 34°13' E 135°09'0 0.0
2017-Apr-26 17:01N 34°13' E 135°09'0 0.0
2017-Apr-26 16:30N 34°13' E 135°09'0 0.0
2017-Apr-26 16:01N 34°13' E 135°09'0 0.0
2017-Apr-26 15:31N 34°13' E 135°09'0 0.4
2017-Apr-26 15:01N 34°13' E 135°08'714.3
2017-Apr-26 14:29N 34°10' E 134°60'3 0.8
2017-Apr-26 10:58N 34°10' E 134°56'715.8
2017-Apr-26 10:31N 34°12' E 135°05'3 6.4
2017-Apr-26 10:00N 34°13' E 135°09'0 0.6
2017-Apr-26 09:30N 34°13' E 135°08'814.9
2017-Apr-26 09:00N 34°11' E 134°59'4 1.2
2017-Apr-26 05:38N 34°09' E 134°55'214.8
2017-Apr-26 05:30N 34°10' E 134°57'713.7
2017-Apr-26 05:00N 34°12' E 135°05'3 6.7
2017-Apr-26 04:30N 34°13' E 135°09'0 0.1
2017-Apr-26 04:00N 34°13' E 135°09'714.7
2017-Apr-26 03:30N 34°10' E 135°00'1 0.2
2017-Apr-26 00:03N 34°11' E 134°60'215.4
2017-Apr-25 23:57N 34°11' E 135°01'614.0
2017-Apr-25 23:30N 34°13' E 135°09'0 0.0
2017-Apr-25 23:00N 34°13' E 135°09'2 4.8
2017-Apr-25 22:30N 34°13' E 135°06'8 2.1
2017-Apr-25 18:28N 34°10' E 134°56'613.8
2017-Apr-25 18:00N 34°12' E 135°03'4 8.9
2017-Apr-25 17:30N 34°13' E 135°09'0 0.0
2017-Apr-25 17:00N 34°13' E 135°09'0 0.0
2017-Apr-25 16:31N 34°13' E 135°09'0 0.0
2017-Apr-25 16:00N 34°13' E 135°09'0 0.0
2017-Apr-25 15:31N 34°13' E 135°09'0 0.0
2017-Apr-25 15:01N 34°13' E 135°09'612.6
2017-Apr-25 14:30N 34°11' E 135°01'3 0.9
2017-Apr-25 10:57N 34°11' E 134°58'613.8
2017-Apr-25 10:31N 34°12' E 135°05'3 6.6
2017-Apr-25 10:00N 34°13' E 135°09'0 0.0
2017-Apr-25 09:31N 34°13' E 135°09'713.7
2017-Apr-25 09:00N 34°11' E 135°00'3 0.8
2017-Apr-25 05:26N 34°10' E 134°58'613.6
2017-Apr-25 05:00N 34°12' E 135°04'4 7.4
2017-Apr-25 04:30N 34°13' E 135°09'0 0.1
2017-Apr-25 04:01N 34°13' E 135°09'713.9
2017-Apr-25 03:29N 34°11' E 135°00'4 1.2
2017-Apr-25 00:15N 34°09' E 134°56'415.2
2017-Apr-25 00:00N 34°11' E 134°60'714.7
2017-Apr-24 23:30N 34°13' E 135°09'0 0.1
2017-Apr-24 23:00N 34°13' E 135°09'3 6.0
2017-Apr-24 22:30N 34°13' E 135°05'12 3.4
2017-Apr-24 18:49N 34°08' E 134°51'613.8
2017-Apr-24 18:24N 34°10' E 134°57'513.7
2017-Apr-24 18:00N 34°13' E 135°03'4 8.7
2017-Apr-24 17:30N 34°13' E 135°09'0 0.0
2017-Apr-24 17:00N 34°13' E 135°09'0 0.0
2017-Apr-24 16:30N 34°13' E 135°09'0 0.0
2017-Apr-24 16:00N 34°13' E 135°09'0 0.0
2017-Apr-24 15:30N 34°13' E 135°09'1 1.3
2017-Apr-24 15:00N 34°13' E 135°08'713.4
2017-Apr-24 14:30N 34°11' E 134°60'2 0.7
2017-Apr-24 10:56N 34°12' E 134°58'614.0
2017-Apr-24 10:30N 34°13' E 135°05'3 6.7
2017-Apr-24 10:01N 34°13' E 135°09'0 0.1
2017-Apr-24 09:31N 34°13' E 135°09'714.3
2017-Apr-24 09:00N 34°11' E 135°00'1 0.3
2017-Apr-24 05:18N 34°11' E 134°59'414.3
2017-Apr-24 05:00N 34°12' E 135°04'4 8.1
2017-Apr-24 04:30N 34°13' E 135°09'0 0.1
2017-Apr-24 04:01N 34°13' E 135°09'714.4
2017-Apr-24 03:30N 34°11' E 135°00'4 1.3
2017-Apr-24 00:18N 34°09' E 134°55'715.9
2017-Apr-23 23:53N 34°12' E 135°03'513.4
2017-Apr-23 23:30N 34°13' E 135°09'0 0.0
2017-Apr-23 23:00N 34°13' E 135°09'3 5.9
2017-Apr-23 22:30N 34°13' E 135°05'915.4
2017-Apr-23 21:57N 34°08' E 134°56'2 0.5
2017-Apr-23 18:36N 34°09' E 134°54'214.0
2017-Apr-23 18:28N 34°10' E 134°57'613.6
2017-Apr-23 18:00N 34°12' E 135°04'4 8.2
2017-Apr-23 17:30N 34°13' E 135°09'0 0.0
2017-Apr-23 17:00N 34°13' E 135°09'0 0.0
2017-Apr-23 16:30N 34°13' E 135°09'0 0.0
2017-Apr-23 16:00N 34°13' E 135°09'0 0.0
2017-Apr-23 15:30N 34°13' E 135°09'0 0.7
2017-Apr-23 15:00N 34°13' E 135°08'713.6
2017-Apr-23 14:30N 34°11' E 135°00'4 1.0
2017-Apr-23 11:02N 34°10' E 134°56'015.5
2017-Apr-23 11:00N 34°10' E 134°56'714.8
2017-Apr-23 10:31N 34°12' E 135°05'3 6.4
2017-Apr-23 10:00N 34°13' E 135°09'0 0.0
2017-Apr-23 09:30N 34°13' E 135°09'713.1
2017-Apr-23 09:00N 34°12' E 135°01'6 1.6
2017-Apr-23 05:33N 34°09' E 134°55'115.7
2017-Apr-23 05:27N 34°09' E 134°56'714.8
2017-Apr-23 05:00N 34°12' E 135°04'4 8.2
2017-Apr-23 04:31N 34°13' E 135°09'0 0.0
2017-Apr-23 04:01N 34°13' E 135°09'713.6
2017-Apr-23 03:31N 34°10' E 135°01'2 0.7
2017-Apr-23 00:10N 34°10' E 134°58'215.5
2017-Apr-23 00:00N 34°11' E 135°01'713.5
2017-Apr-22 23:31N 34°13' E 135°09'0 0.0
2017-Apr-22 23:01N 34°13' E 135°09'3 5.9
2017-Apr-22 22:30N 34°13' E 135°05'17 4.9
2017-Apr-22 19:03N 34°08' E 134°45'815.8
2017-Apr-22 18:34N 34°09' E 134°54'214.4
2017-Apr-22 18:28N 34°09' E 134°56'614.2
2017-Apr-22 18:01N 34°12' E 135°03'4 8.7
2017-Apr-22 17:31N 34°13' E 135°09'0 0.0
2017-Apr-22 17:01N 34°13' E 135°09'0 0.0
2017-Apr-22 16:31N 34°13' E 135°09'0 0.0
2017-Apr-22 16:01N 34°13' E 135°09'0 0.0
2017-Apr-22 15:30N 34°13' E 135°09'0 0.0
2017-Apr-22 15:01N 34°13' E 135°09'713.3
2017-Apr-22 14:30N 34°11' E 135°01'2 0.5
2017-Apr-22 10:51N 34°11' E 134°59'514.3
2017-Apr-22 10:30N 34°12' E 135°05'3 6.7
2017-Apr-22 10:00N 34°13' E 135°09'0 0.1
2017-Apr-22 09:30N 34°13' E 135°09'714.6
2017-Apr-22 09:00N 34°11' E 135°00'1 0.3
2017-Apr-22 05:18N 34°10' E 134°59'413.8
2017-Apr-22 05:00N 34°12' E 135°04'4 8.4
2017-Apr-22 04:31N 34°13' E 135°09'0 0.0
2017-Apr-22 04:01N 34°13' E 135°09'713.9
2017-Apr-22 03:30N 34°11' E 135°00'3 1.0
2017-Apr-22 00:11N 34°10' E 134°57'416.3
2017-Apr-21 23:57N 34°11' E 135°01'614.6
2017-Apr-21 23:30N 34°13' E 135°09'0 0.0
2017-Apr-21 23:00N 34°13' E 135°09'3 5.3
2017-Apr-21 22:31N 34°13' E 135°05'9 2.4
2017-Apr-21 18:36N 34°09' E 134°55'213.4
2017-Apr-21 18:25N 34°10' E 134°57'613.4
2017-Apr-21 18:00N 34°12' E 135°04'4 8.3
2017-Apr-21 17:31N 34°13' E 135°09'0 0.0
2017-Apr-21 17:00N 34°13' E 135°09'0 0.0
2017-Apr-21 16:31N 34°13' E 135°09'0 0.0
2017-Apr-21 16:01N 34°13' E 135°09'0 0.0
2017-Apr-21 15:31N 34°13' E 135°09'0 0.7
2017-Apr-21 15:00N 34°13' E 135°08'713.7
2017-Apr-21 14:30N 34°11' E 135°00'1 0.3
2017-Apr-21 10:51N 34°11' E 134°59'514.8
2017-Apr-21 10:30N 34°12' E 135°05'3 6.5
2017-Apr-21 10:01N 34°13' E 135°09'0 0.3
2017-Apr-21 09:30N 34°13' E 135°08'714.5
2017-Apr-21 09:00N 34°10' E 135°00'4 1.3
2017-Apr-21 05:33N 34°09' E 134°55'214.0
2017-Apr-21 05:24N 34°10' E 134°57'614.2
2017-Apr-21 05:00N 34°12' E 135°04'4 8.3
2017-Apr-21 04:30N 34°13' E 135°09'0 0.1
2017-Apr-21 04:00N 34°13' E 135°09'714.1
2017-Apr-21 03:30N 34°11' E 135°01'4 1.2
2017-Apr-21 00:16N 34°09' E 134°56'415.7
2017-Apr-21 00:00N 34°11' E 135°01'714.0
2017-Apr-20 23:30N 34°13' E 135°09'0 0.0
2017-Apr-20 23:00N 34°13' E 135°09'3 5.9
2017-Apr-20 22:30N 34°12' E 135°05'8 1.9
2017-Apr-20 18:29N 34°10' E 134°56'613.1
2017-Apr-20 18:00N 34°12' E 135°04'4 8.4
2017-Apr-20 17:30N 34°13' E 135°09'0 0.0
2017-Apr-20 17:00N 34°13' E 135°09'0 0.0
2017-Apr-20 16:30N 34°13' E 135°09'0 0.0
2017-Apr-20 16:00N 34°13' E 135°09'0 0.0
2017-Apr-20 15:30N 34°13' E 135°09'1 1.1
2017-Apr-20 15:00N 34°13' E 135°08'714.0
2017-Apr-20 14:30N 34°11' E 134°60'4 1.2
2017-Apr-20 11:04N 34°09' E 134°56'415.2
2017-Apr-20 10:48N 34°11' E 135°00'414.6
2017-Apr-20 10:30N 34°12' E 135°05'3 6.7
2017-Apr-20 10:01N 34°13' E 135°09'1 1.1
2017-Apr-20 09:30N 34°13' E 135°08'815.0
2017-Apr-20 09:00N 34°10' E 134°59'5 1.4
2017-Apr-20 05:36N 34°08' E 134°54'113.9
2017-Apr-20 05:30N 34°09' E 134°56'  
Track history (hours):
 
Tides and Currents Weather Stations Pressure Air Temp Water Temp Dewpoint Dewpoint Depression Visibility Wind Speed Wind Dir Waves Ship Positions

Ferry Katsuragi

Last reported at 2017-Apr-30 05:01 UTC. Time now 2017-Apr-30 05:20 UTC.
Position N 34°11' E 135°03'.

Length 108 m; draft 4 m.

Type: Passenger vessel. MMSI: 431301245.

Date/timePositionNaut miles runAvg speedWind from/ knotsBaromVisibWave heightAir tempDewpointWater temp
2017-Apr-30 05:01N 34°11' E 135°03'5 9.1
2017-Apr-30 04:30N 34°13' E 135°09'0 0.0
2017-Apr-30 04:00N 34°13' E 135°09'713.4
2017-Apr-30 03:30N 34°11' E 135°01'4 1.2
2017-Apr-30 00:15N 34°10' E 134°56'515.9
2017-Apr-29 23:58N 34°12' E 135°01'714.3
2017-Apr-29 23:31N 34°13' E 135°09'0 0.0
2017-Apr-29 23:00N 34°13' E 135°09'3 6.0
2017-Apr-29 22:30N 34°13' E 135°05'9 2.3
2017-Apr-29 18:33N 34°09' E 134°55'114.1
2017-Apr-29 18:30N 34°09' E 134°56'713.9
2017-Apr-29 18:00N 34°12' E 135°03'4 8.8
2017-Apr-29 17:31N 34°13' E 135°09'0 0.0
2017-Apr-29 17:00N 34°13' E 135°09'0 0.0
2017-Apr-29 16:30N 34°13' E 135°09'0 0.0
2017-Apr-29 16:00N 34°13' E 135°09'0 0.0
2017-Apr-29 15:30N 34°13' E 135°09'0 0.2
2017-Apr-29 15:01N 34°13' E 135°08'713.5
2017-Apr-29 14:30N 34°12' E 135°00'3 0.8
2017-Apr-29 10:55N 34°10' E 134°58'615.1
2017-Apr-29 10:30N 34°12' E 135°05'3 6.7
2017-Apr-29 10:01N 34°13' E 135°09'0 0.0
2017-Apr-29 09:30N 34°13' E 135°09'715.0
2017-Apr-29 09:01N 34°11' E 134°60'10 3.1
2017-Apr-29 05:52N 34°07' E 134°49'715.3
2017-Apr-29 05:23N 34°10' E 134°57'514.6
2017-Apr-29 05:00N 34°12' E 135°03'5 9.1
2017-Apr-29 04:30N 34°13' E 135°09'0 0.0
2017-Apr-29 04:00N 34°13' E 135°09'612.0
2017-Apr-29 03:30N 34°11' E 135°02'5 1.4
2017-Apr-29 00:12N 34°10' E 134°56'317.5
2017-Apr-29 00:00N 34°11' E 134°60'815.0
2017-Apr-28 23:30N 34°13' E 135°09'0 0.0
2017-Apr-28 23:01N 34°13' E 135°09'3 5.5
2017-Apr-28 22:31N 34°12' E 135°05'815.1
2017-Apr-28 22:00N 34°09' E 134°57'12 4.4
2017-Apr-28 19:17N 34°05' E 134°43'613.9
2017-Apr-28 18:52N 34°08' E 134°50'514.2
2017-Apr-28 18:30N 34°09' E 134°56'714.4
2017-Apr-28 18:00N 34°12' E 135°03'4 8.7
2017-Apr-28 17:30N 34°13' E 135°09'0 0.0
2017-Apr-28 17:00N 34°13' E 135°09'0 0.0
2017-Apr-28 16:30N 34°13' E 135°09'0 0.0
2017-Apr-28 16:00N 34°13' E 135°09'0 0.0
2017-Apr-28 15:30N 34°13' E 135°09'0 0.7
2017-Apr-28 15:01N 34°13' E 135°08'713.7
2017-Apr-28 14:30N 34°10' E 135°00'3 0.9
2017-Apr-28 11:01N 34°10' E 134°56'115.0
2017-Apr-28 10:58N 34°10' E 134°57'715.0
2017-Apr-28 10:30N 34°12' E 135°05'3 5.9
2017-Apr-28 10:00N 34°13' E 135°09'0 0.5
2017-Apr-28 09:30N 34°13' E 135°08'815.5
2017-Apr-28 09:00N 34°11' E 134°59'1 0.4
2017-Apr-28 05:11N 34°11' E 135°01'314.4
2017-Apr-28 05:00N 34°12' E 135°04'4 8.2
2017-Apr-28 04:30N 34°13' E 135°09'0 0.0
2017-Apr-28 04:01N 34°13' E 135°09'714.2
2017-Apr-28 03:30N 34°10' E 135°00'10 3.4
2017-Apr-28 00:36N 34°07' E 134°49'316.2
2017-Apr-28 00:26N 34°08' E 134°52'716.2
2017-Apr-28 00:00N 34°11' E 135°00'714.9
2017-Apr-27 23:30N 34°13' E 135°09'0 0.1
2017-Apr-27 23:01N 34°13' E 135°09'3 5.5
2017-Apr-27 22:30N 34°13' E 135°05'814.4
2017-Apr-27 21:59N 34°10' E 134°57'7 2.3
2017-Apr-27 18:55N 34°07' E 134°49'614.1
2017-Apr-27 18:28N 34°09' E 134°56'714.3
2017-Apr-27 18:00N 34°12' E 135°03'5 9.2
2017-Apr-27 17:30N 34°13' E 135°09'0 0.0
2017-Apr-27 17:00N 34°13' E 135°09'0 0.0
2017-Apr-27 16:31N 34°13' E 135°09'0 0.0
2017-Apr-27 16:01N 34°13' E 135°09'0 0.0
2017-Apr-27 15:30N 34°13' E 135°09'1 1.3
2017-Apr-27 15:01N 34°13' E 135°08'713.2
2017-Apr-27 14:30N 34°11' E 135°00'4 1.0
2017-Apr-27 11:00N 34°10' E 134°56'714.9
2017-Apr-27 10:30N 34°12' E 135°04'4 7.1
2017-Apr-27 10:00N 34°13' E 135°09'0 0.1
2017-Apr-27 09:30N 34°13' E 135°09'714.1
2017-Apr-27 09:00N 34°11' E 135°00'5 1.5
2017-Apr-27 05:33N 34°08' E 134°55'114.4
2017-Apr-27 05:28N 34°09' E 134°56'714.2
2017-Apr-27 05:00N 34°11' E 135°04'4 8.8
2017-Apr-27 04:30N 34°13' E 135°09'0 0.1
2017-Apr-27 04:00N 34°13' E 135°09'714.0
2017-Apr-27 03:30N 34°11' E 135°00'2 0.7
2017-Apr-27 00:10N 34°10' E 134°58'215.7
2017-Apr-27 00:01N 34°11' E 135°01'713.6
2017-Apr-26 23:30N 34°13' E 135°09'0 0.0
2017-Apr-26 23:00N 34°13' E 135°09'3 5.3
2017-Apr-26 22:31N 34°13' E 135°05'815.6
2017-Apr-26 21:59N 34°09' E 134°57'1 0.2
2017-Apr-26 18:28N 34°09' E 134°57'613.8
2017-Apr-26 18:01N 34°12' E 135°04'4 8.3
2017-Apr-26 17:30N 34°13' E 135°09'0 0.0
2017-Apr-26 17:01N 34°13' E 135°09'0 0.0
2017-Apr-26 16:30N 34°13' E 135°09'0 0.0
2017-Apr-26 16:01N 34°13' E 135°09'0 0.0
2017-Apr-26 15:31N 34°13' E 135°09'0 0.4
2017-Apr-26 15:01N 34°13' E 135°08'714.3
2017-Apr-26 14:29N 34°10' E 134°60'3 0.8
2017-Apr-26 10:58N 34°10' E 134°56'715.8
2017-Apr-26 10:31N 34°12' E 135°05'3 6.4
2017-Apr-26 10:00N 34°13' E 135°09'0 0.6
2017-Apr-26 09:30N 34°13' E 135°08'814.9
2017-Apr-26 09:00N 34°11' E 134°59'4 1.2
2017-Apr-26 05:38N 34°09' E 134°55'214.8
2017-Apr-26 05:30N 34°10' E 134°57'713.7
2017-Apr-26 05:00N 34°12' E 135°05'3 6.7
2017-Apr-26 04:30N 34°13' E 135°09'0 0.1
2017-Apr-26 04:00N 34°13' E 135°09'714.7
2017-Apr-26 03:30N 34°10' E 135°00'1 0.2
2017-Apr-26 00:03N 34°11' E 134°60'215.4
2017-Apr-25 23:57N 34°11' E 135°01'614.0
2017-Apr-25 23:30N 34°13' E 135°09'0 0.0
2017-Apr-25 23:00N 34°13' E 135°09'2 4.8
2017-Apr-25 22:30N 34°13' E 135°06'8 2.1
2017-Apr-25 18:28N 34°10' E 134°56'613.8
2017-Apr-25 18:00N 34°12' E 135°03'4 8.9
2017-Apr-25 17:30N 34°13' E 135°09'0 0.0
2017-Apr-25 17:00N 34°13' E 135°09'0 0.0
2017-Apr-25 16:31N 34°13' E 135°09'0 0.0
2017-Apr-25 16:00N 34°13' E 135°09'0 0.0
2017-Apr-25 15:31N 34°13' E 135°09'0 0.0
2017-Apr-25 15:01N 34°13' E 135°09'612.6
2017-Apr-25 14:30N 34°11' E 135°01'3 0.9
2017-Apr-25 10:57N 34°11' E 134°58'613.8
2017-Apr-25 10:31N 34°12' E 135°05'3 6.6
2017-Apr-25 10:00N 34°13' E 135°09'0 0.0
2017-Apr-25 09:31N 34°13' E 135°09'713.7
2017-Apr-25 09:00N 34°11' E 135°00'3 0.8
2017-Apr-25 05:26N 34°10' E 134°58'613.6
2017-Apr-25 05:00N 34°12' E 135°04'4 7.4
2017-Apr-25 04:30N 34°13' E 135°09'0 0.1
2017-Apr-25 04:01N 34°13' E 135°09'713.9
2017-Apr-25 03:29N 34°11' E 135°00'4 1.2
2017-Apr-25 00:15N 34°09' E 134°56'415.2
2017-Apr-25 00:00N 34°11' E 134°60'714.7
2017-Apr-24 23:30N 34°13' E 135°09'0 0.1
2017-Apr-24 23:00N 34°13' E 135°09'3 6.0
2017-Apr-24 22:30N 34°13' E 135°05'12 3.4
2017-Apr-24 18:49N 34°08' E 134°51'613.8
2017-Apr-24 18:24N 34°10' E 134°57'513.7
2017-Apr-24 18:00N 34°13' E 135°03'4 8.7
2017-Apr-24 17:30N 34°13' E 135°09'0 0.0
2017-Apr-24 17:00N 34°13' E 135°09'0 0.0
2017-Apr-24 16:30N 34°13' E 135°09'0 0.0
2017-Apr-24 16:00N 34°13' E 135°09'0 0.0
2017-Apr-24 15:30N 34°13' E 135°09'1 1.3
2017-Apr-24 15:00N 34°13' E 135°08'713.4
2017-Apr-24 14:30N 34°11' E 134°60'2 0.7
2017-Apr-24 10:56N 34°12' E 134°58'614.0
2017-Apr-24 10:30N 34°13' E 135°05'3 6.7
2017-Apr-24 10:01N 34°13' E 135°09'0 0.1
2017-Apr-24 09:31N 34°13' E 135°09'714.3
2017-Apr-24 09:00N 34°11' E 135°00'1 0.3
2017-Apr-24 05:18N 34°11' E 134°59'414.3
2017-Apr-24 05:00N 34°12' E 135°04'4 8.1
2017-Apr-24 04:30N 34°13' E 135°09'0 0.1
2017-Apr-24 04:01N 34°13' E 135°09'714.4
2017-Apr-24 03:30N 34°11' E 135°00'4 1.3
2017-Apr-24 00:18N 34°09' E 134°55'715.9
2017-Apr-23 23:53N 34°12' E 135°03'513.4
2017-Apr-23 23:30N 34°13' E 135°09'0 0.0
2017-Apr-23 23:00N 34°13' E 135°09'3 5.9
2017-Apr-23 22:30N 34°13' E 135°05'915.4
2017-Apr-23 21:57N 34°08' E 134°56'2 0.5
2017-Apr-23 18:36N 34°09' E 134°54'214.0
2017-Apr-23 18:28N 34°10' E 134°57'613.6
2017-Apr-23 18:00N 34°12' E 135°04'4 8.2
2017-Apr-23 17:30N 34°13' E 135°09'0 0.0
2017-Apr-23 17:00N 34°13' E 135°09'0 0.0
2017-Apr-23 16:30N 34°13' E 135°09'0 0.0
2017-Apr-23 16:00N 34°13' E 135°09'0 0.0
2017-Apr-23 15:30N 34°13' E 135°09'0 0.7
2017-Apr-23 15:00N 34°13' E 135°08'713.6
2017-Apr-23 14:30N 34°11' E 135°00'4 1.0
2017-Apr-23 11:02N 34°10' E 134°56'015.5
2017-Apr-23 11:00N 34°10' E 134°56'714.8
2017-Apr-23 10:31N 34°12' E 135°05'3 6.4
2017-Apr-23 10:00N 34°13' E 135°09'0 0.0
2017-Apr-23 09:30N 34°13' E 135°09'713.1
2017-Apr-23 09:00N 34°12' E 135°01'6 1.6
2017-Apr-23 05:33N 34°09' E 134°55'115.7
2017-Apr-23 05:27N 34°09' E 134°56'714.8
2017-Apr-23 05:00N 34°12' E 135°04'4 8.2
2017-Apr-23 04:31N 34°13' E 135°09'0 0.0
2017-Apr-23 04:01N 34°13' E 135°09'713.6
2017-Apr-23 03:31N 34°10' E 135°01'2 0.7
2017-Apr-23 00:10N 34°10' E 134°58'215.5
2017-Apr-23 00:00N 34°11' E 135°01'713.5
2017-Apr-22 23:31N 34°13' E 135°09'0 0.0
2017-Apr-22 23:01N 34°13' E 135°09'3 5.9
2017-Apr-22 22:30N 34°13' E 135°05'17 4.9
2017-Apr-22 19:03N 34°08' E 134°45'815.8
2017-Apr-22 18:34N 34°09' E 134°54'214.4
2017-Apr-22 18:28N 34°09' E 134°56'614.2
2017-Apr-22 18:01N 34°12' E 135°03'4 8.7
2017-Apr-22 17:31N 34°13' E 135°09'0 0.0
2017-Apr-22 17:01N 34°13' E 135°09'0 0.0
2017-Apr-22 16:31N 34°13' E 135°09'0 0.0
2017-Apr-22 16:01N 34°13' E 135°09'0 0.0
2017-Apr-22 15:30N 34°13' E 135°09'0 0.0
2017-Apr-22 15:01N 34°13' E 135°09'713.3
2017-Apr-22 14:30N 34°11' E 135°01'2 0.5
2017-Apr-22 10:51N 34°11' E 134°59'514.3
2017-Apr-22 10:30N 34°12' E 135°05'3 6.7
2017-Apr-22 10:00N 34°13' E 135°09'0 0.1
2017-Apr-22 09:30N 34°13' E 135°09'714.6
2017-Apr-22 09:00N 34°11' E 135°00'1 0.3
2017-Apr-22 05:18N 34°10' E 134°59'413.8
2017-Apr-22 05:00N 34°12' E 135°04'4 8.4
2017-Apr-22 04:31N 34°13' E 135°09'0 0.0
2017-Apr-22 04:01N 34°13' E 135°09'713.9
2017-Apr-22 03:30N 34°11' E 135°00'3 1.0
2017-Apr-22 00:11N 34°10' E 134°57'416.3
2017-Apr-21 23:57N 34°11' E 135°01'614.6
2017-Apr-21 23:30N 34°13' E 135°09'0 0.0
2017-Apr-21 23:00N 34°13' E 135°09'3 5.3
2017-Apr-21 22:31N 34°13' E 135°05'9 2.4
2017-Apr-21 18:36N 34°09' E 134°55'213.4
2017-Apr-21 18:25N 34°10' E 134°57'613.4
2017-Apr-21 18:00N 34°12' E 135°04'4 8.3
2017-Apr-21 17:31N 34°13' E 135°09'0 0.0
2017-Apr-21 17:00N 34°13' E 135°09'0 0.0
2017-Apr-21 16:31N 34°13' E 135°09'0 0.0
2017-Apr-21 16:01N 34°13' E 135°09'0 0.0
2017-Apr-21 15:31N 34°13' E 135°09'0 0.7
2017-Apr-21 15:00N 34°13' E 135°08'713.7
2017-Apr-21 14:30N 34°11' E 135°00'1 0.3
2017-Apr-21 10:51N 34°11' E 134°59'514.8
2017-Apr-21 10:30N 34°12' E 135°05'3 6.5
2017-Apr-21 10:01N 34°13' E 135°09'0 0.3
2017-Apr-21 09:30N 34°13' E 135°08'714.5
2017-Apr-21 09:00N 34°10' E 135°00'4 1.3
2017-Apr-21 05:33N 34°09' E 134°55'214.0
2017-Apr-21 05:24N 34°10' E 134°57'614.2
2017-Apr-21 05:00N 34°12' E 135°04'4 8.3
2017-Apr-21 04:30N 34°13' E 135°09'0 0.1
2017-Apr-21 04:00N 34°13' E 135°09'714.1
2017-Apr-21 03:30N 34°11' E 135°01'4 1.2
2017-Apr-21 00:16N 34°09' E 134°56'415.7
2017-Apr-21 00:00N 34°11' E 135°01'714.0
2017-Apr-20 23:30N 34°13' E 135°09'0 0.0
2017-Apr-20 23:00N 34°13' E 135°09'3 5.9
2017-Apr-20 22:30N 34°12' E 135°05'8 1.9
2017-Apr-20 18:29N 34°10' E 134°56'613.1
2017-Apr-20 18:00N 34°12' E 135°04'4 8.4
2017-Apr-20 17:30N 34°13' E 135°09'0 0.0
2017-Apr-20 17:00N 34°13' E 135°09'0 0.0
2017-Apr-20 16:30N 34°13' E 135°09'0 0.0
2017-Apr-20 16:00N 34°13' E 135°09'0 0.0
2017-Apr-20 15:30N 34°13' E 135°09'1 1.1
2017-Apr-20 15:00N 34°13' E 135°08'714.0
2017-Apr-20 14:30N 34°11' E 134°60'4 1.2
2017-Apr-20 11:04N 34°09' E 134°56'415.2
2017-Apr-20 10:48N 34°11' E 135°00'414.6
2017-Apr-20 10:30N 34°12' E 135°05'3 6.7
2017-Apr-20 10:01N 34°13' E 135°09'1 1.1
2017-Apr-20 09:30N 34°13' E 135°08'815.0
2017-Apr-20 09:00N 34°10' E 134°59'5 1.4
2017-Apr-20 05:36N 34°08' E 134°54'113.9
2017-Apr-20 05:30N 34°09' E 134°56'  

Dump ship's entire track history